createdAt,value
2023-02-24T00:00:33.977Z,7.90
2023-02-24T00:05:39.263Z,7.90
2023-02-24T00:10:43.840Z,7.80
2023-02-24T00:15:47.055Z,7.80
2023-02-24T00:20:50.313Z,7.70
2023-02-24T00:26:01.224Z,7.70
2023-02-24T00:31:06.264Z,7.50
2023-02-24T00:36:11.844Z,7.50
2023-02-24T00:41:22.537Z,7.40
2023-02-24T00:46:32.477Z,7.40
2023-02-24T00:51:38.240Z,7.40
2023-02-24T00:56:44.697Z,7.40
2023-02-24T01:01:50.143Z,7.30
2023-02-24T01:07:00.210Z,7.30
2023-02-24T01:12:40.248Z,7.20
2023-02-24T01:17:43.730Z,7.00
2023-02-24T01:22:49.642Z,7.00
2023-02-24T01:27:54.432Z,6.90
2023-02-24T01:32:58.310Z,6.90
2023-02-24T01:38:01.928Z,6.90
2023-02-24T01:43:08.870Z,6.80
2023-02-24T01:48:13.532Z,6.80
2023-02-24T01:53:17.219Z,6.90
2023-02-24T01:58:32.797Z,7.00
2023-02-24T02:03:38.180Z,6.90
2023-02-24T02:08:43.366Z,6.90
2023-02-24T02:13:52.297Z,6.90
2023-02-24T02:19:03.703Z,6.80
2023-02-24T02:24:45.820Z,6.60
2023-02-24T02:30:21.400Z,6.00
2023-02-24T02:35:29.590Z,5.60
2023-02-24T02:40:41.569Z,5.30
2023-02-24T02:45:52.713Z,5.10
2023-02-24T02:51:04.633Z,4.90
2023-02-24T02:56:13.191Z,4.70
2023-02-24T03:01:21.359Z,4.60
2023-02-24T03:06:30.214Z,4.50
2023-02-24T03:11:34.708Z,4.50
2023-02-24T03:16:38.159Z,4.50
2023-02-24T03:21:45.435Z,4.50
2023-02-24T03:26:53.603Z,4.50
2023-02-24T03:32:05.686Z,4.40
2023-02-24T03:37:11.260Z,4.50
2023-02-24T03:42:18.562Z,4.50
2023-02-24T03:47:22.336Z,4.50
2023-02-24T03:52:39.211Z,4.50
2023-02-24T03:58:00.379Z,4.40
2023-02-24T04:03:25.990Z,4.40
2023-02-24T04:08:42.449Z,4.40
2023-02-24T04:13:50.610Z,4.30
2023-02-24T04:19:03.765Z,4.30
2023-02-24T04:24:15.811Z,4.20
2023-02-24T04:29:24.545Z,4.30
2023-02-24T04:34:32.427Z,4.30
2023-02-24T04:39:38.953Z,4.40
2023-02-24T04:44:47.891Z,4.40
2023-02-24T04:49:51.081Z,4.40
2023-02-24T04:54:55.641Z,4.40
2023-02-24T04:59:58.908Z,4.40
2023-02-24T05:05:02.353Z,4.30
2023-02-24T05:10:08.011Z,4.30
2023-02-24T05:15:12.406Z,4.40
2023-02-24T05:20:32.778Z,4.30
2023-02-24T05:25:37.889Z,4.30
2023-02-24T05:30:41.257Z,4.30
2023-02-24T05:35:45.500Z,4.30
2023-02-24T05:40:50.360Z,4.20
2023-02-24T05:45:53.592Z,4.20
2023-02-24T05:50:56.795Z,4.20
2023-02-24T05:56:05.616Z,4.20
2023-02-24T06:01:16.347Z,4.20
2023-02-24T06:06:19.724Z,4.20
2023-02-24T06:11:24.711Z,4.30
2023-02-24T06:16:28.169Z,4.20
2023-02-24T06:21:31.759Z,4.20
2023-02-24T06:26:36.901Z,4.20
2023-02-24T06:31:40.312Z,4.20
2023-02-24T06:36:43.728Z,4.30
2023-02-24T06:41:52.298Z,4.30
2023-02-24T06:46:56.259Z,4.50
2023-02-24T06:52:00.093Z,4.60
2023-02-24T06:57:05.416Z,4.70
2023-02-24T07:02:11.054Z,4.70
2023-02-24T07:07:17.322Z,4.90
2023-02-24T07:12:21.997Z,4.90
2023-02-24T07:17:25.910Z,5.00
2023-02-24T07:22:29.165Z,5.10
2023-02-24T07:27:33.889Z,5.10
2023-02-24T07:32:38.343Z,5.20
2023-02-24T07:37:41.831Z,5.20
2023-02-24T07:42:49.491Z,5.40
2023-02-24T07:47:52.780Z,5.60
2023-02-24T07:52:55.941Z,5.70
2023-02-24T07:58:01.606Z,5.80
2023-02-24T08:03:04.670Z,5.90
2023-02-24T08:08:08.018Z,6.00
2023-02-24T08:13:12.624Z,6.10
2023-02-24T08:18:19.968Z,6.30
2023-02-24T08:23:23.658Z,6.40
2023-02-24T08:28:28.461Z,6.60
2023-02-24T08:33:31.695Z,7.00
2023-02-24T08:38:44.883Z,7.30
2023-02-24T08:43:50.384Z,7.50
2023-02-24T08:48:56.594Z,7.60
2023-02-24T08:54:02.095Z,7.60
2023-02-24T08:59:07.558Z,7.70
2023-02-24T09:04:12.757Z,8.00
2023-02-24T09:09:20.883Z,8.30
2023-02-24T09:14:29.186Z,8.30
2023-02-24T09:19:55.087Z,8.10
2023-02-24T09:25:17.983Z,8.00
2023-02-24T09:30:37.624Z,8.00
2023-02-24T09:35:42.848Z,7.90
2023-02-24T09:40:51.029Z,7.80
2023-02-24T09:46:02.010Z,7.80
2023-02-24T09:51:06.129Z,8.00
2023-02-24T09:56:22.428Z,8.40
2023-02-24T10:01:36.046Z,8.50
2023-02-24T10:06:43.928Z,8.60
2023-02-24T10:11:55.058Z,8.70
2023-02-24T10:17:17.397Z,8.80
2023-02-24T10:22:28.538Z,8.90
2023-02-24T10:27:39.616Z,9.20
2023-02-24T10:32:49.242Z,9.70
2023-02-24T10:37:53.791Z,10.00
2023-02-24T10:43:10.612Z,10.00
2023-02-24T10:48:39.299Z,10.10
2023-02-24T10:53:53.117Z,10.00
2023-02-24T10:59:41.340Z,10.00
2023-02-24T11:05:04.585Z,10.10
2023-02-24T11:10:14.309Z,10.10
2023-02-24T11:15:39.024Z,9.70
2023-02-24T11:20:49.773Z,9.70
2023-02-24T11:25:58.294Z,9.50
2023-02-24T11:31:14.909Z,9.30
2023-02-24T11:36:27.899Z,8.90
2023-02-24T11:41:36.688Z,8.70
2023-02-24T11:46:44.496Z,8.80
2023-02-24T11:51:49.864Z,8.90
2023-02-24T11:56:58.131Z,8.80
2023-02-24T12:02:08.077Z,8.80
2023-02-24T12:07:19.405Z,8.40
2023-02-24T12:12:29.187Z,8.10
2023-02-24T12:17:38.435Z,8.10
2023-02-24T12:22:48.516Z,8.10
2023-02-24T12:28:06.000Z,7.90
2023-02-24T12:33:25.078Z,7.90
2023-02-24T12:38:51.616Z,7.90
2023-02-24T12:43:59.921Z,8.00
2023-02-24T12:49:21.273Z,8.00
2023-02-24T12:54:31.099Z,8.00
2023-02-24T12:59:40.190Z,7.90
2023-02-24T13:04:55.250Z,7.80
2023-02-24T13:10:11.340Z,7.80
2023-02-24T13:15:21.414Z,7.60
2023-02-24T13:20:31.474Z,7.60
2023-02-24T13:25:38.529Z,7.50
2023-02-24T13:30:43.488Z,7.20
2023-02-24T13:35:48.485Z,6.80
2023-02-24T13:40:53.781Z,6.30
2023-02-24T13:46:01.129Z,5.90
2023-02-24T13:51:33.964Z,5.60
2023-02-24T13:56:45.362Z,5.50
2023-02-24T14:01:51.883Z,5.40
2023-02-24T14:06:58.666Z,5.20
2023-02-24T14:12:07.788Z,5.20
2023-02-24T14:17:24.499Z,5.10
2023-02-24T14:22:28.338Z,5.00
2023-02-24T14:27:33.734Z,4.70
2023-02-24T14:32:37.457Z,4.60
2023-02-24T14:37:41.447Z,4.50
2023-02-24T14:42:50.600Z,4.50
2023-02-24T14:47:54.561Z,4.40
2023-02-24T14:53:01.199Z,4.20
2023-02-24T14:58:10.587Z,4.30
2023-02-24T15:03:19.595Z,4.30
2023-02-24T15:08:32.792Z,4.40
2023-02-24T15:13:40.701Z,4.30
2023-02-24T15:18:44.686Z,4.20
2023-02-24T15:23:48.589Z,4.20
2023-02-24T15:28:58.922Z,4.10
2023-02-24T15:34:03.826Z,4.00
2023-02-24T15:39:09.066Z,4.00
2023-02-24T15:44:28.713Z,4.00
2023-02-24T15:49:31.943Z,4.00
2023-02-24T15:54:38.623Z,4.10
2023-02-24T15:59:43.385Z,4.10
2023-02-24T16:04:47.647Z,4.10
2023-02-24T16:09:53.432Z,4.10
2023-02-24T16:15:03.133Z,4.10
2023-02-24T16:20:09.156Z,4.10
2023-02-24T16:25:16.274Z,4.00
2023-02-24T16:30:22.749Z,3.90
2023-02-24T16:35:26.968Z,3.80
2023-02-24T16:40:37.362Z,3.80
2023-02-24T16:45:43.944Z,3.70
2023-02-24T16:50:47.946Z,3.60
2023-02-24T16:55:52.319Z,3.70
2023-02-24T17:01:02.483Z,3.60
2023-02-24T17:06:06.079Z,3.60
2023-02-24T17:11:13.332Z,3.70
2023-02-24T17:16:18.575Z,3.70
2023-02-24T17:21:22.266Z,3.60
2023-02-24T17:26:25.622Z,3.60
2023-02-24T17:31:32.082Z,3.50
2023-02-24T17:36:37.107Z,3.40
2023-02-24T17:41:40.707Z,3.40
2023-02-24T17:46:45.338Z,3.40
2023-02-24T17:51:48.672Z,3.40
2023-02-24T17:56:51.990Z,3.40
2023-02-24T18:01:56.647Z,3.40
2023-02-24T18:06:59.864Z,3.50
2023-02-24T18:12:03.305Z,3.50
2023-02-24T18:17:07.935Z,3.70
2023-02-24T18:22:11.387Z,3.70
2023-02-24T18:27:14.658Z,3.80
2023-02-24T18:32:19.555Z,3.80
2023-02-24T18:37:23.284Z,3.90
2023-02-24T18:42:26.792Z,3.90
2023-02-24T18:47:31.441Z,4.00
2023-02-24T18:52:34.796Z,4.10
2023-02-24T18:57:38.357Z,4.10
2023-02-24T19:02:43.004Z,4.10
2023-02-24T19:07:46.216Z,4.10
2023-02-24T19:12:50.760Z,4.10
2023-02-24T19:17:55.395Z,4.20
2023-02-24T19:22:58.632Z,4.20
2023-02-24T19:28:01.814Z,4.20
2023-02-24T19:33:07.142Z,4.30
2023-02-24T19:38:13.508Z,4.30
2023-02-24T19:43:16.745Z,4.30
2023-02-24T19:48:21.389Z,4.30
2023-02-24T19:53:24.992Z,4.40
2023-02-24T19:58:28.294Z,4.40
2023-02-24T20:03:33.044Z,4.20
2023-02-24T20:08:36.714Z,4.10
2023-02-24T20:13:39.985Z,4.30
2023-02-24T20:18:45.421Z,4.30
2023-02-24T20:23:49.062Z,4.20
2023-02-24T20:28:52.994Z,4.30
2023-02-24T20:33:57.825Z,4.40
2023-02-24T20:39:01.215Z,4.40
2023-02-24T20:44:04.495Z,4.40
2023-02-24T20:49:10.401Z,4.50
2023-02-24T20:54:14.886Z,4.50
2023-02-24T20:59:20.618Z,4.60
2023-02-24T21:04:25.319Z,4.60
2023-02-24T21:09:29.009Z,4.60
2023-02-24T21:14:32.339Z,4.60
2023-02-24T21:19:37.313Z,4.60
2023-02-24T21:24:40.874Z,4.60
2023-02-24T21:29:46.129Z,4.60
2023-02-24T21:34:50.968Z,4.70
2023-02-24T21:39:54.262Z,4.70
2023-02-24T21:45:02.752Z,4.60
2023-02-24T21:50:08.890Z,4.70
2023-02-24T21:55:12.639Z,4.60
2023-02-24T22:00:20.520Z,4.60
2023-02-24T22:05:26.924Z,4.60
2023-02-24T22:10:30.681Z,4.50
2023-02-24T22:15:34.143Z,4.50
2023-02-24T22:20:39.389Z,4.50
2023-02-24T22:25:43.006Z,4.50
2023-02-24T22:30:47.507Z,4.40
2023-02-24T22:35:52.201Z,4.30
2023-02-24T22:41:00.027Z,4.20
2023-02-24T22:46:05.535Z,4.20
2023-02-24T22:51:11.707Z,4.20
2023-02-24T22:56:17.266Z,4.10
2023-02-24T23:01:21.941Z,4.10
2023-02-24T23:06:26.762Z,4.10
2023-02-24T23:11:31.928Z,4.10
2023-02-24T23:16:36.731Z,4.20
2023-02-24T23:21:43.118Z,4.10
2023-02-24T23:26:48.154Z,4.20
2023-02-24T23:31:52.638Z,4.20
2023-02-24T23:36:57.395Z,3.90
2023-02-24T23:42:00.568Z,3.70
2023-02-24T23:47:05.090Z,3.60
2023-02-24T23:52:11.446Z,3.70
2023-02-24T23:57:14.610Z,3.80
